Time;durP1;ratioP1;P1;durP2;ratioP2;P2;SDS_P1;SDS_P2;PMS_P1;PMS_P2;Temp;Humidity;BMP_temperature;BMP_pressure;BME280_temperature;BME280_humidity;BME280_pressure;Samples;Min_cycle;Max_cycle;Signal;HPM_P1;HPM_P2
2021/07/20 00:00:34;;;;;;;;;14.75;14.00;;;;;;;;4517510;31;45563;-79
2021/07/20 00:02:59;;;;;;;;;14.00;13.00;;;;;;;;4521276;31;45507;-79
2021/07/20 00:05:52;;;;;;;;;18.25;13.25;;;;;;;;4519313;31;46202;-78
2021/07/20 00:11:30;;;;;;;;;17.25;15.50;;;;;;;;4514746;31;45679;-79
2021/07/20 00:14:13;;;;;;;;;11.75;10.75;;;;;;;;4519834;31;45658;-79
2021/07/20 00:16:39;;;;;;;;;12.75;12.00;;;;;;;;4545330;30;45609;-77
2021/07/20 00:19:04;;;;;;;;;15.25;14.00;;;;;;;;4562229;30;45627;-77
2021/07/20 00:21:29;;;;;;;;;15.25;12.50;;;;;;;;4560194;30;55830;-77
2021/07/20 00:23:55;;;;;;;;;15.75;13.75;;;;;;;;4578813;30;45546;-77
2021/07/20 00:26:20;;;;;;;;;14.25;14.00;;;;;;;;4572759;30;45761;-77
2021/07/20 00:28:47;;;;;;;;;15.50;13.25;;;;;;;;4579821;30;46320;-76
2021/07/20 00:31:35;;;;;;;;;19.25;13.75;;;;;;;;4638639;30;45441;-77
2021/07/20 00:34:00;;;;;;;;;13.50;12.25;;;;;;;;4681734;30;45473;-76
2021/07/20 00:36:26;;;;;;;;;14.50;13.25;;;;;;;;4676373;30;46163;-77
2021/07/20 00:38:51;;;;;;;;;16.25;14.25;;;;;;;;4695049;30;45571;-76
2021/07/20 00:41:16;;;;;;;;;18.33;13.00;;;;;;;;4689885;30;45465;-77
2021/07/20 00:43:41;;;;;;;;;16.00;12.25;;;;;;;;4700539;30;45396;-77
2021/07/20 00:46:06;;;;;;;;;14.25;14.00;;;;;;;;4679769;30;47474;-77
2021/07/20 00:48:32;;;;;;;;;18.33;16.00;;;;;;;;4690619;30;46152;-77
2021/07/20 00:50:57;;;;;;;;;16.00;16.00;;;;;;;;4692215;30;45825;-77
2021/07/20 00:53:23;;;;;;;;;16.50;13.50;;;;;;;;4691732;30;46924;-77
2021/07/20 00:55:48;;;;;;;;;19.25;14.25;;;;;;;;4692408;30;45548;-77
2021/07/20 00:58:16;;;;;;;;;12.50;11.25;;;;;;;;4694971;30;56919;-76
2021/07/20 01:00:42;;;;;;;;;13.25;13.25;;;;;;;;4687481;30;45577;-77
2021/07/20 01:03:07;;;;;;;;;15.00;13.25;;;;;;;;4676034;30;45511;-77
2021/07/20 01:05:33;;;;;;;;;12.00;12.00;;;;;;;;4676230;30;46514;-77
2021/07/20 01:08:00;;;;;;;;;13.25;12.25;;;;;;;;4687232;30;45545;-77
2021/07/20 01:13:32;;;;;;;;;14.25;13.25;;;;;;;;4637103;30;45829;-77
2021/07/20 01:15:58;;;;;;;;;15.75;12.50;;;;;;;;4638299;30;45610;-77
2021/07/20 01:18:24;;;;;;;;;17.50;12.00;;;;;;;;4639197;30;45602;-77
2021/07/20 01:20:50;;;;;;;;;14.75;13.00;;;;;;;;4643781;30;45432;-77
2021/07/20 01:23:50;;;;;;;;;16.00;12.00;;;;;;;;4640014;30;45946;-77
2021/07/20 01:26:15;;;;;;;;;13.75;12.25;;;;;;;;4640311;30;45447;-77
2021/07/20 01:28:41;;;;;;;;;16.75;14.50;;;;;;;;4623585;30;45967;-77
2021/07/20 01:31:11;;;;;;;;;15.50;12.25;;;;;;;;4639727;30;45562;-77
2021/07/20 01:33:40;;;;;;;;;14.75;14.75;;;;;;;;4635825;30;45588;-77
2021/07/20 01:36:08;;;;;;;;;22.75;15.75;;;;;;;;4643696;30;46736;-77
2021/07/20 01:38:34;;;;;;;;;18.00;14.25;;;;;;;;4623295;30;46007;-77
2021/07/20 01:41:00;;;;;;;;;13.25;13.25;;;;;;;;4639080;30;45953;-77
2021/07/20 01:43:26;;;;;;;;;17.75;16.00;;;;;;;;4641641;30;45570;-77
2021/07/20 01:45:54;;;;;;;;;14.50;11.00;;;;;;;;4634549;30;47596;-77
2021/07/20 01:48:20;;;;;;;;;18.25;16.50;;;;;;;;4636238;30;45517;-77
2021/07/20 01:50:45;;;;;;;;;20.00;17.00;;;;;;;;4672637;30;46595;-77
2021/07/20 01:53:11;;;;;;;;;16.25;13.00;;;;;;;;4672209;30;45590;-77
2021/07/20 01:55:36;;;;;;;;;19.25;17.25;;;;;;;;4688101;30;46450;-77
2021/07/20 01:58:01;;;;;;;;;15.00;13.25;;;;;;;;4683256;30;45989;-77
2021/07/20 02:00:27;;;;;;;;;14.25;13.50;;;;;;;;4667627;30;45756;-77
2021/07/20 02:08:43;;;;;;;;;13.25;11.50;;;;;;;;4685919;30;45446;-77
2021/07/20 02:14:22;;;;;;;;;17.75;14.25;;;;;;;;4628323;30;45838;-77
2021/07/20 02:16:48;;;;;;;;;15.75;13.75;;;;;;;;4617055;30;46449;-77
2021/07/20 02:19:13;;;;;;;;;14.25;13.50;;;;;;;;4634776;30;45488;-77
2021/07/20 02:21:41;;;;;;;;;18.33;14.33;;;;;;;;4632087;30;45453;-77
2021/07/20 02:24:07;;;;;;;;;19.00;17.25;;;;;;;;4622948;30;45526;-77
2021/07/20 02:27:04;;;;;;;;;14.75;13.50;;;;;;;;4636644;30;46488;-77
2021/07/20 02:32:35;;;;;;;;;14.50;14.50;;;;;;;;4584381;30;45398;-77
2021/07/20 02:35:41;;;;;;;;;20.00;18.25;;;;;;;;4581039;30;45601;-77
2021/07/20 02:38:06;;;;;;;;;13.25;11.75;;;;;;;;4580743;30;46116;-77
2021/07/20 02:40:32;;;;;;;;;17.75;16.75;;;;;;;;4584357;30;45558;-77
2021/07/20 02:44:02;;;;;;;;;14.50;12.75;;;;;;;;4583988;30;45794;-78
2021/07/20 02:46:44;;;;;;;;;15.75;14.50;;;;;;;;4585280;30;45642;-76
2021/07/20 02:55:42;;;;;;;;;16.25;14.75;;;;;;;;4527636;31;46420;-77
2021/07/20 02:58:07;;;;;;;;;14.75;14.75;;;;;;;;4521891;31;45668;-77
2021/07/20 03:00:33;;;;;;;;;20.00;14.75;;;;;;;;4521581;31;46570;-77
2021/07/20 03:02:59;;;;;;;;;15.00;15.00;;;;;;;;4509548;31;46426;-76
2021/07/20 03:05:24;;;;;;;;;17.75;16.25;;;;;;;;4520603;31;45760;-77
2021/07/20 03:07:51;;;;;;;;;19.50;15.50;;;;;;;;4520345;31;48722;-77
2021/07/20 03:10:18;;;;;;;;;17.25;16.00;;;;;;;;4553550;31;45593;-77
2021/07/20 03:13:34;;;;;;;;;;;;;;;;;;;;;
2021/07/20 03:15:49;;;;;;;;;16.50;13.75;;;;;;;;4519594;31;45611;-77
2021/07/20 03:18:15;;;;;;;;;16.75;15.75;;;;;;;;4517560;31;45866;-78
2021/07/20 03:20:59;;;;;;;;;19.00;15.25;;;;;;;;4526644;31;46150;-76
2021/07/20 03:23:26;;;;;;;;;19.75;17.75;;;;;;;;4508043;31;46074;-77
2021/07/20 03:25:54;;;;;;;;;16.75;15.75;;;;;;;;4518179;31;45632;-77
2021/07/20 03:28:20;;;;;;;;;18.25;17.00;;;;;;;;4548452;30;45657;-77
2021/07/20 03:30:45;;;;;;;;;20.50;14.50;;;;;;;;4567683;30;46571;-77
2021/07/20 03:36:24;;;;;;;;;17.00;14.00;;;;;;;;4552572;31;45311;-77
2021/07/20 03:38:49;;;;;;;;;18.00;15.50;;;;;;;;4559080;31;45794;-79
2021/07/20 03:41:17;;;;;;;;;16.50;15.00;;;;;;;;4563673;31;46209;-79
2021/07/20 03:46:49;;;;;;;;;22.00;18.00;;;;;;;;4529859;31;45866;-80
2021/07/20 03:49:17;;;;;;;;;17.25;15.25;;;;;;;;4541396;31;45544;-79
2021/07/20 03:51:43;;;;;;;;;14.50;13.50;;;;;;;;4542896;30;46431;-79
2021/07/20 03:54:09;;;;;;;;;18.00;17.00;;;;;;;;4574580;30;45784;-79
2021/07/20 03:56:36;;;;;;;;;16.25;13.75;;;;;;;;4570299;30;47708;-79
2021/07/20 03:59:08;;;;;;;;;16.50;14.25;;;;;;;;4574025;30;45501;-79
2021/07/20 04:01:35;;;;;;;;;19.00;15.75;;;;;;;;4581049;30;45666;-78
2021/07/20 04:04:01;;;;;;;;;17.75;15.50;;;;;;;;4578683;30;45528;-79
2021/07/20 04:06:27;;;;;;;;;17.00;14.00;;;;;;;;4568383;30;45900;-79
2021/07/20 04:08:52;;;;;;;;;18.25;16.75;;;;;;;;4586038;30;45490;-79
2021/07/20 04:11:18;;;;;;;;;19.50;17.75;;;;;;;;4580495;30;46042;-78
2021/07/20 04:13:43;;;;;;;;;14.75;14.75;;;;;;;;4640281;30;45551;-79
2021/07/20 04:16:09;;;;;;;;;21.00;17.00;;;;;;;;4647701;30;46093;-79
2021/07/20 04:18:35;;;;;;;;;17.75;16.75;;;;;;;;4658624;30;45522;-79
2021/07/20 04:21:01;;;;;;;;;14.50;14.00;;;;;;;;4663762;30;47734;-79
2021/07/20 04:23:27;;;;;;;;;20.00;16.25;;;;;;;;4666624;30;45461;-78
2021/07/20 04:25:53;;;;;;;;;20.00;17.50;;;;;;;;4666718;30;45834;-79
2021/07/20 04:28:19;;;;;;;;;15.00;15.00;;;;;;;;4667258;30;45478;-79
2021/07/20 04:30:45;;;;;;;;;19.00;15.00;;;;;;;;4665173;30;47093;-79
2021/07/20 04:33:14;;;;;;;;;19.50;16.50;;;;;;;;4669761;30;45680;-79
2021/07/20 04:35:40;;;;;;;;;17.75;16.75;;;;;;;;4654753;30;45512;-79
2021/07/20 04:38:07;;;;;;;;;16.75;15.75;;;;;;;;4645870;30;45545;-79
2021/07/20 04:40:32;;;;;;;;;18.75;15.00;;;;;;;;4665749;30;45718;-79
2021/07/20 04:42:58;;;;;;;;;20.25;16.25;;;;;;;;4661945;30;45405;-79
2021/07/20 04:45:25;;;;;;;;;17.25;17.25;;;;;;;;4669387;30;45570;-79
2021/07/20 04:47:51;;;;;;;;;16.75;15.00;;;;;;;;4671076;30;45613;-79
2021/07/20 05:03:24;;;;;;;;;23.50;21.00;;;;;;;;4487443;31;45760;-80
2021/07/20 05:12:12;;;;;;;;;24.50;20.50;;;;;;;;4441952;31;45839;-79
2021/07/20 05:14:38;;;;;;;;;19.25;16.00;;;;;;;;4443360;31;45989;-80
2021/07/20 05:17:06;;;;;;;;;19.25;15.50;;;;;;;;4440334;31;45597;-79
2021/07/20 05:29:26;;;;;;;;;23.25;19.00;;;;;;;;4360630;32;45639;-80
2021/07/20 05:53:44;;;;;;;;;25.25;18.00;;;;;;;;4519487;31;45545;-77
2021/07/20 05:56:10;;;;;;;;;21.50;16.00;;;;;;;;4549980;24;55566;-86
2021/07/20 05:58:36;;;;;;;;;21.75;18.50;;;;;;;;4687739;30;45303;-86
2021/07/20 06:01:02;;;;;;;;;27.00;20.50;;;;;;;;4681520;30;46340;-86
2021/07/20 06:06:06;;;;;;;;;21.25;17.25;;;;;;;;4981646;24;45667;-77
2021/07/20 06:12:44;;;;;;;;;25.25;22.75;;;;;;;;4638353;30;45699;-79
2021/07/20 06:15:04;;;;;;;;;20.00;17.25;;;;;;;;4594779;30;45880;-79
2021/07/20 06:41:21;;;;;;;;;27.75;24.75;;;;;;;;4659935;30;45650;-87
2021/07/20 06:43:47;;;;;;;;;28.00;22.75;;;;;;;;4705320;24;45644;-81
2021/07/20 06:46:13;;;;;;;;;26.00;23.00;;;;;;;;4674413;30;47365;-77
2021/07/20 06:48:39;;;;;;;;;31.00;28.50;;;;;;;;4693461;30;49187;-78
2021/07/20 07:13:07;;;;;;;;;24.00;21.75;;;;;;;;4995772;24;46338;-81
2021/07/20 07:15:33;;;;;;;;;31.25;27.00;;;;;;;;4687454;30;45660;-82
2021/07/20 07:18:20;;;;;;;;;30.25;24.75;;;;;;;;4669125;30;48234;-81
2021/07/20 07:23:52;;;;;;;;;35.75;29.25;;;;;;;;4588901;30;45803;-81
2021/07/20 07:26:24;;;;;;;;;25.25;23.50;;;;;;;;4582648;30;45671;-80
2021/07/20 07:47:36;;;;;;;;;36.50;28.25;;;;;;;;4414096;32;45656;-79
2021/07/20 07:50:03;;;;;;;;;29.75;27.50;;;;;;;;4405869;32;45431;-79
2021/07/20 07:52:28;;;;;;;;;27.25;24.50;;;;;;;;4411147;32;45704;-79
2021/07/20 07:54:54;;;;;;;;;32.00;26.50;;;;;;;;4408573;32;49093;-78
2021/07/20 07:57:19;;;;;;;;;30.75;26.50;;;;;;;;4410069;32;45584;-79
2021/07/20 07:59:46;;;;;;;;;30.50;25.75;;;;;;;;4413609;32;45588;-79
2021/07/20 08:02:15;;;;;;;;;38.25;29.00;;;;;;;;4486133;31;46606;-79
2021/07/20 08:04:43;;;;;;;;;32.00;30.00;;;;;;;;4491088;31;45718;-79
2021/07/20 08:07:48;;;;;;;;;37.75;30.75;;;;;;;;4496850;31;46436;-79
2021/07/20 08:10:12;;;;;;;;;32.50;26.00;;;;;;;;4524311;31;45751;-79
2021/07/20 08:12:39;;;;;;;;;39.00;28.75;;;;;;;;4553382;31;45622;-78
2021/07/20 08:15:05;;;;;;;;;32.00;26.25;;;;;;;;4563440;31;45863;-78
2021/07/20 08:17:32;;;;;;;;;31.00;25.00;;;;;;;;4557853;30;45747;-79
2021/07/20 08:19:58;;;;;;;;;32.25;25.25;;;;;;;;4585108;30;45941;-79
2021/07/20 08:22:25;;;;;;;;;33.50;26.50;;;;;;;;4591132;30;45550;-79
2021/07/20 08:25:05;;;;;;;;;30.75;28.75;;;;;;;;4641843;30;45587;-78
2021/07/20 08:27:40;;;;;;;;;30.50;27.25;;;;;;;;4675124;30;45495;-78
2021/07/20 08:30:07;;;;;;;;;33.25;25.25;;;;;;;;4669059;30;45558;-79
2021/07/20 08:32:34;;;;;;;;;30.75;26.75;;;;;;;;4671748;30;48303;-79
2021/07/20 08:35:08;;;;;;;;;31.00;24.75;;;;;;;;4672251;30;45796;-79
2021/07/20 08:37:35;;;;;;;;;30.50;27.75;;;;;;;;4693221;30;45515;-79
2021/07/20 08:40:06;;;;;;;;;32.75;25.00;;;;;;;;4688430;30;45364;-79
2021/07/20 08:42:48;;;;;;;;;38.00;27.75;;;;;;;;4678392;30;46509;-78
2021/07/20 08:45:22;;;;;;;;;33.25;23.75;;;;;;;;4684307;30;45400;-78
2021/07/20 08:47:47;;;;;;;;;28.50;25.00;;;;;;;;4679357;30;45558;-78
2021/07/20 08:50:19;;;;;;;;;26.00;22.00;;;;;;;;4671393;30;46975;-79
2021/07/20 09:09:00;;;;;;;;;26.50;22.75;;;;;;;;4697274;30;45713;-79
2021/07/20 09:11:25;;;;;;;;;23.75;19.75;;;;;;;;4613699;30;45656;-80
2021/07/20 09:14:41;;;;;;;;;29.75;22.00;;;;;;;;4614007;30;47834;-80
2021/07/20 09:17:24;;;;;;;;;27.25;21.00;;;;;;;;4616338;30;45697;-80
2021/07/20 09:19:52;;;;;;;;;17.25;16.75;;;;;;;;4613879;30;45613;-80
2021/07/20 09:22:19;;;;;;;;;21.75;20.50;;;;;;;;4620931;30;45641;-80
2021/07/20 09:32:48;;;;;;;;;24.00;21.25;;;;;;;;1358674;28;46749;-80
2021/07/20 09:35:34;;;;;;;;;22.50;17.50;;;;;;;;4664817;30;47440;-79
2021/07/20 09:38:18;;;;;;;;;20.25;18.00;;;;;;;;4668972;30;45533;-78
2021/07/20 09:41:03;;;;;;;;;26.50;20.00;;;;;;;;4679605;30;45599;-78
2021/07/20 09:43:47;;;;;;;;;24.25;19.75;;;;;;;;4683312;30;45459;-78
2021/07/20 09:46:17;;;;;;;;;29.25;20.50;;;;;;;;4684531;30;45542;-78
2021/07/20 09:48:47;;;;;;;;;23.25;20.25;;;;;;;;4665842;30;45651;-78
2021/07/20 09:51:18;;;;;;;;;23.50;18.00;;;;;;;;4668548;30;45560;-78
2021/07/20 09:54:13;;;;;;;;;20.50;19.25;;;;;;;;4685952;30;47005;-78
2021/07/20 09:56:40;;;;;;;;;22.50;15.75;;;;;;;;4669825;30;45501;-78
2021/07/20 09:59:30;;;;;;;;;19.00;15.50;;;;;;;;4685115;30;45346;-78
2021/07/20 10:01:57;;;;;;;;;19.50;15.25;;;;;;;;4671209;30;45833;-78
2021/07/20 10:04:22;;;;;;;;;16.25;15.25;;;;;;;;4680238;30;46895;-78
2021/07/20 10:06:50;;;;;;;;;15.67;14.33;;;;;;;;4671410;30;47339;-78
2021/07/20 10:09:15;;;;;;;;;20.75;16.75;;;;;;;;4689608;30;45726;-78
2021/07/20 10:11:45;;;;;;;;;18.75;16.75;;;;;;;;4685669;30;45665;-78
2021/07/20 10:14:31;;;;;;;;;20.25;17.25;;;;;;;;4671579;30;45558;-78
2021/07/20 10:16:59;;;;;;;;;18.00;15.00;;;;;;;;4680422;30;47728;-78
2021/07/20 10:19:45;;;;;;;;;20.50;19.00;;;;;;;;4668385;30;45787;-79
2021/07/20 10:22:13;;;;;;;;;19.25;15.00;;;;;;;;4635608;30;45728;-78
2021/07/20 10:32:20;;;;;;;;;20.00;19.00;;;;;;;;4663219;30;45606;-79
2021/07/20 10:35:06;;;;;;;;;22.50;18.25;;;;;;;;4672839;30;45342;-80
2021/07/20 10:37:36;;;;;;;;;23.00;17.00;;;;;;;;4652286;30;48180;-78
2021/07/20 10:40:09;;;;;;;;;14.25;11.50;;;;;;;;4666999;30;46491;-78
2021/07/20 10:42:57;;;;;;;;;18.75;16.50;;;;;;;;4649938;30;45508;-78
2021/07/20 10:45:34;;;;;;;;;18.00;16.00;;;;;;;;4646756;30;45710;-79
2021/07/20 10:48:06;;;;;;;;;26.75;19.75;;;;;;;;4655658;30;48318;-78
2021/07/20 10:50:42;;;;;;;;;21.50;17.75;;;;;;;;4662873;30;45535;-78
2021/07/20 10:53:26;;;;;;;;;24.00;19.50;;;;;;;;4647190;30;45906;-78
2021/07/20 10:56:21;;;;;;;;;20.25;18.50;;;;;;;;4653505;30;46171;-79
2021/07/20 10:59:05;;;;;;;;;23.50;19.25;;;;;;;;4587345;30;48649;-78
2021/07/20 11:01:51;;;;;;;;;21.50;18.50;;;;;;;;5191889;24;45779;-80
2021/07/20 11:04:16;;;;;;;;;23.25;20.00;;;;;;;;4688927;30;47410;-78
2021/07/20 11:06:43;;;;;;;;;24.67;21.00;;;;;;;;4668381;30;45583;-78
2021/07/20 11:09:15;;;;;;;;;26.50;21.00;;;;;;;;4674773;30;47591;-78
2021/07/20 11:11:44;;;;;;;;;28.50;19.50;;;;;;;;4686354;30;45523;-78
2021/07/20 11:14:09;;;;;;;;;24.75;23.25;;;;;;;;4686961;30;48452;-77
2021/07/20 11:16:35;;;;;;;;;25.75;21.00;;;;;;;;4690662;30;45507;-78
2021/07/20 11:19:02;;;;;;;;;25.25;22.25;;;;;;;;4687292;30;46131;-77
2021/07/20 11:24:16;;;;;;;;;24.25;18.25;;;;;;;;4860617;24;46342;-76
2021/07/20 11:26:44;;;;;;;;;21.75;18.00;;;;;;;;4685162;30;46176;-76
2021/07/20 11:32:07;;;;;;;;;27.75;21.50;;;;;;;;4610884;30;45779;-78
2021/07/20 11:34:46;;;;;;;;;20.50;17.50;;;;;;;;4616750;30;45571;-79
2021/07/20 11:40:19;;;;;;;;;23.00;21.25;;;;;;;;4623077;30;45411;-77
2021/07/20 11:42:45;;;;;;;;;22.50;18.75;;;;;;;;4614895;30;51270;-79
2021/07/20 11:45:13;;;;;;;;;25.75;20.00;;;;;;;;4660047;24;45712;-88
2021/07/20 11:47:41;;;;;;;;;21.00;16.25;;;;;;;;4695607;30;50170;-87
2021/07/20 11:50:07;;;;;;;;;23.75;21.25;;;;;;;;4694856;30;46095;-89
2021/07/20 11:52:35;;;;;;;;;21.75;19.50;;;;;;;;4696350;30;45611;-87
2021/07/20 11:55:08;;;;;;;;;22.25;20.25;;;;;;;;4693465;30;45596;-87
2021/07/20 11:57:34;;;;;;;;;22.25;20.00;;;;;;;;4694114;30;45680;-88
2021/07/20 12:00:25;;;;;;;;;23.00;18.00;;;;;;;;4697283;30;45509;-88
2021/07/20 12:08:10;;;;;;;;;20.00;18.25;;;;;;;;5572580;24;46170;-95
2021/07/20 12:38:02;;;;;;;;;20.00;17.75;;;;;;;;1388259;28;46244;-83
2021/07/20 13:26:45;;;;;;;;;15.25;12.25;;;;;;;;5540479;24;45799;-82
2021/07/20 13:35:00;;;;;;;;;15.75;10.75;;;;;;;;4686940;30;46928;-87
2021/07/20 13:37:25;;;;;;;;;14.00;11.50;;;;;;;;4686122;30;47050;-87
2021/07/20 13:39:51;;;;;;;;;17.25;13.50;;;;;;;;5007374;24;45676;-86
2021/07/20 13:42:19;;;;;;;;;15.50;14.00;;;;;;;;4697602;30;45556;-86
2021/07/20 13:44:45;;;;;;;;;13.75;12.25;;;;;;;;4696668;30;45689;-87
2021/07/20 13:47:11;;;;;;;;;13.25;10.00;;;;;;;;4696074;30;47472;-87
2021/07/20 13:49:37;;;;;;;;;12.75;11.75;;;;;;;;4683645;30;45562;-87
2021/07/20 13:52:03;;;;;;;;;13.75;11.00;;;;;;;;4696295;30;45364;-86
2021/07/20 13:54:30;;;;;;;;;12.50;11.75;;;;;;;;4685992;30;45586;-87
2021/07/20 13:56:56;;;;;;;;;13.75;13.50;;;;;;;;4695651;30;46117;-87
2021/07/20 13:59:30;;;;;;;;;12.25;10.00;;;;;;;;4660987;30;45941;-86
2021/07/20 14:01:55;;;;;;;;;8.75;8.25;;;;;;;;4690163;30;45426;-88
2021/07/20 14:04:21;;;;;;;;;12.00;10.00;;;;;;;;4695692;30;45550;-87
2021/07/20 14:06:47;;;;;;;;;10.25;10.25;;;;;;;;4694648;30;46347;-87
2021/07/20 14:09:13;;;;;;;;;11.25;11.00;;;;;;;;4680447;30;45547;-87
2021/07/20 14:11:41;;;;;;;;;8.50;8.50;;;;;;;;4699509;30;45467;-87
2021/07/20 14:14:07;;;;;;;;;10.75;9.50;;;;;;;;4691547;30;51268;-87
2021/07/20 14:16:33;;;;;;;;;9.75;8.00;;;;;;;;4675644;30;48288;-87
2021/07/20 14:18:59;;;;;;;;;10.25;8.50;;;;;;;;4694851;30;46884;-87
2021/07/20 14:21:28;;;;;;;;;13.25;9.50;;;;;;;;4694375;30;45769;-87
2021/07/20 14:24:02;;;;;;;;;13.00;10.50;;;;;;;;4696640;30;45499;-87
2021/07/20 14:26:28;;;;;;;;;9.75;7.00;;;;;;;;4692722;30;46473;-87
2021/07/20 14:28:54;;;;;;;;;9.75;8.25;;;;;;;;4694510;30;46069;-87
2021/07/20 14:31:19;;;;;;;;;11.50;9.50;;;;;;;;4695539;30;45490;-87
2021/07/20 14:33:45;;;;;;;;;9.50;8.00;;;;;;;;4694278;30;45720;-86
2021/07/20 14:36:30;;;;;;;;;13.50;11.00;;;;;;;;4679884;30;48601;-87
2021/07/20 14:38:55;;;;;;;;;7.00;6.50;;;;;;;;4695876;30;45734;-87
2021/07/20 14:41:20;;;;;;;;;14.67;11.67;;;;;;;;4678306;30;45564;-87
2021/07/20 14:43:45;;;;;;;;;12.67;10.00;;;;;;;;4697142;30;45457;-87
2021/07/20 14:46:12;;;;;;;;;11.00;7.00;;;;;;;;4688270;30;47074;-87
2021/07/20 14:48:40;;;;;;;;;16.00;10.50;;;;;;;;4716677;24;45524;-87
2021/07/20 14:51:44;;;;;;;;;10.75;10.00;;;;;;;;4720509;24;46216;-81
2021/07/20 14:59:43;;;;;;;;;11.50;10.00;;;;;;;;4689230;30;45524;-87
2021/07/20 15:02:08;;;;;;;;;10.50;9.25;;;;;;;;4691572;30;45760;-88
2021/07/20 15:04:33;;;;;;;;;10.75;10.00;;;;;;;;4690458;30;45522;-88
2021/07/20 15:07:25;;;;;;;;;11.50;10.25;;;;;;;;4686574;30;45570;-87
2021/07/20 15:09:53;;;;;;;;;10.00;9.00;;;;;;;;4686950;30;45600;-88
2021/07/20 15:12:23;;;;;;;;;8.75;8.75;;;;;;;;4686852;30;45610;-89
2021/07/20 15:17:52;;;;;;;;;13.75;12.25;;;;;;;;4964291;24;46967;-82
2021/07/20 15:20:20;;;;;;;;;9.00;9.00;;;;;;;;4678867;30;46725;-81
2021/07/20 15:23:00;;;;;;;;;14.00;10.00;;;;;;;;4687916;30;45887;-83
2021/07/20 15:25:29;;;;;;;;;13.50;10.00;;;;;;;;3886908;24;46447;-82
2021/07/20 15:59:22;;;;;;;;;14.00;13.00;;;;;;;;5045985;24;45859;-87
2021/07/20 16:13:34;;;;;;;;;14.25;10.75;;;;;;;;4874502;24;45410;-95
2021/07/20 16:16:00;;;;;;;;;11.75;9.75;;;;;;;;4702745;30;45476;-95
2021/07/20 16:18:25;;;;;;;;;12.75;9.75;;;;;;;;4711873;30;44871;-94
2021/07/20 16:44:11;;;;;;;;;11.25;11.00;;;;;;;;4721513;24;45694;-80
2021/07/20 16:46:46;;;;;;;;;11.00;10.00;;;;;;;;4686445;30;45556;-80
2021/07/20 16:49:11;;;;;;;;;13.00;10.75;;;;;;;;4671105;30;45772;-80
2021/07/20 16:52:04;;;;;;;;;14.75;11.00;;;;;;;;4682529;30;46454;-80
2021/07/20 16:54:29;;;;;;;;;15.00;12.00;;;;;;;;4669703;30;45722;-80
2021/07/20 16:57:01;;;;;;;;;12.75;12.00;;;;;;;;4688862;30;45540;-80
2021/07/20 16:59:58;;;;;;;;;14.25;12.00;;;;;;;;4672169;30;46040;-80
2021/07/20 17:02:23;;;;;;;;;12.25;12.00;;;;;;;;4682236;30;45505;-81
2021/07/20 17:04:50;;;;;;;;;14.75;10.25;;;;;;;;4687279;30;46104;-80
2021/07/20 17:07:15;;;;;;;;;15.25;13.50;;;;;;;;4669008;30;45531;-81
2021/07/20 17:09:44;;;;;;;;;11.50;9.00;;;;;;;;4694121;30;45579;-80
2021/07/20 17:12:10;;;;;;;;;12.25;10.25;;;;;;;;4689331;30;45484;-81
2021/07/20 17:14:36;;;;;;;;;13.50;10.75;;;;;;;;4688196;30;45552;-80
2021/07/20 17:17:03;;;;;;;;;15.25;12.00;;;;;;;;4688464;30;46935;-80
2021/07/20 17:19:29;;;;;;;;;13.50;11.25;;;;;;;;4675682;30;45617;-81
2021/07/20 17:21:54;;;;;;;;;13.00;12.50;;;;;;;;4670157;30;47120;-82
2021/07/20 17:24:19;;;;;;;;;17.50;12.50;;;;;;;;4676153;30;46096;-81
2021/07/20 17:26:48;;;;;;;;;14.00;10.75;;;;;;;;4679420;30;45478;-81
2021/07/20 17:29:20;;;;;;;;;13.75;12.25;;;;;;;;4835710;24;45771;-94
2021/07/20 17:31:46;;;;;;;;;11.75;11.00;;;;;;;;4705761;30;46280;-94
2021/07/20 17:34:14;;;;;;;;;15.00;10.50;;;;;;;;4698452;30;45410;-93
2021/07/20 17:36:39;;;;;;;;;15.25;12.50;;;;;;;;4685479;30;45523;-93
2021/07/20 17:39:04;;;;;;;;;13.75;10.00;;;;;;;;4692224;30;45613;-93
2021/07/20 17:41:42;;;;;;;;;15.33;12.67;;;;;;;;4700064;30;47439;-94
2021/07/20 17:44:08;;;;;;;;;17.50;15.25;;;;;;;;4843886;24;48336;-80
2021/07/20 17:47:41;;;;;;;;;14.50;11.75;;;;;;;;4684786;30;45661;-80
2021/07/20 17:49:56;;;;;;;;;17.00;12.50;;;;;;;;4599354;30;45708;-82
2021/07/20 17:52:22;;;;;;;;;13.25;12.00;;;;;;;;4604584;30;46795;-80
2021/07/20 17:55:10;;;;;;;;;21.00;13.25;;;;;;;;4599202;30;46029;-80
2021/07/20 17:57:39;;;;;;;;;11.25;10.25;;;;;;;;4538170;31;45583;-79
2021/07/20 18:00:05;;;;;;;;;12.25;11.25;;;;;;;;4556831;31;45553;-81
2021/07/20 18:02:37;;;;;;;;;14.25;13.00;;;;;;;;4556921;31;46322;-78
2021/07/20 18:05:04;;;;;;;;;14.00;12.50;;;;;;;;4541839;31;46113;-81
2021/07/20 18:07:31;;;;;;;;;10.00;9.50;;;;;;;;4558717;31;45817;-82
2021/07/20 18:09:57;;;;;;;;;14.25;11.75;;;;;;;;4554179;31;45656;-81
2021/07/20 18:12:22;;;;;;;;;13.75;11.25;;;;;;;;4557264;31;45733;-82
2021/07/20 18:25:35;;;;;;;;;12.00;10.33;;;;;;;;4917516;24;45520;-85
2021/07/20 18:28:01;;;;;;;;;11.00;10.00;;;;;;;;4675263;30;46017;-85
2021/07/20 18:30:27;;;;;;;;;11.75;9.50;;;;;;;;4684085;30;45817;-87
2021/07/20 19:29:43;;;;;;;;;14.00;11.00;;;;;;;;4709648;24;46418;-87
2021/07/20 19:32:08;;;;;;;;;12.75;10.25;;;;;;;;4684028;30;45530;-87
2021/07/20 19:44:53;;;;;;;;;14.25;11.25;;;;;;;;5243620;24;46262;-96
2021/07/20 20:02:52;;;;;;;;;17.50;15.75;;;;;;;;5100091;24;46023;-96
2021/07/20 20:05:17;;;;;;;;;15.25;12.75;;;;;;;;4701665;30;45366;-95
2021/07/20 20:07:43;;;;;;;;;13.00;11.50;;;;;;;;4684212;30;48006;-93
2021/07/20 20:23:21;;;;;;;;;14.50;12.00;;;;;;;;5435822;24;46740;-83
2021/07/20 20:25:50;;;;;;;;;14.50;12.00;;;;;;;;4669298;30;47595;-82
2021/07/20 20:28:15;;;;;;;;;13.50;11.00;;;;;;;;4667146;30;45687;-79
2021/07/20 20:30:41;;;;;;;;;12.50;11.25;;;;;;;;4668821;30;46086;-79
2021/07/20 20:33:06;;;;;;;;;12.75;10.25;;;;;;;;4656538;30;45516;-79
2021/07/20 20:35:31;;;;;;;;;15.75;11.00;;;;;;;;4654222;30;45809;-79
2021/07/20 20:37:57;;;;;;;;;14.50;12.50;;;;;;;;4667533;30;45861;-79
2021/07/20 20:44:04;;;;;;;;;14.75;13.25;;;;;;;;4614259;30;45796;-79
2021/07/20 20:46:30;;;;;;;;;16.25;13.00;;;;;;;;4601150;30;45648;-80
2021/07/20 20:49:00;;;;;;;;;15.50;12.75;;;;;;;;4600254;30;47613;-80
2021/07/20 20:51:29;;;;;;;;;14.25;12.50;;;;;;;;4596792;30;45868;-81
2021/07/20 20:53:54;;;;;;;;;15.75;14.00;;;;;;;;4618796;30;45712;-79
2021/07/20 20:56:33;;;;;;;;;16.25;12.25;;;;;;;;4603990;30;45639;-81
2021/07/20 20:59:00;;;;;;;;;15.75;14.00;;;;;;;;4613372;30;49095;-79
2021/07/20 21:01:29;;;;;;;;;16.25;13.00;;;;;;;;4620409;30;45921;-79
2021/07/20 21:03:55;;;;;;;;;17.75;12.50;;;;;;;;4606232;30;45545;-79
2021/07/20 21:13:30;;;;;;;;;12.50;12.50;;;;;;;;4499686;31;45587;-81
2021/07/20 21:29:20;;;;;;;;;18.75;17.00;;;;;;;;4675063;28;46162;-81
2021/07/20 21:35:00;;;;;;;;;18.50;16.75;;;;;;;;4699323;30;45827;-81
2021/07/20 21:40:49;;;;;;;;;19.00;15.25;;;;;;;;4632409;30;45866;-82
2021/07/20 21:43:55;;;;;;;;;20.50;17.50;;;;;;;;4615071;30;46967;-79
2021/07/20 21:46:22;;;;;;;;;19.25;14.75;;;;;;;;4633193;30;45609;-79
2021/07/20 21:48:47;;;;;;;;;19.25;15.25;;;;;;;;4628124;30;45658;-80
2021/07/20 21:51:15;;;;;;;;;17.75;14.75;;;;;;;;4637804;30;47856;-80
2021/07/20 21:53:45;;;;;;;;;21.50;15.50;;;;;;;;4633138;30;46806;-80
2021/07/20 21:56:10;;;;;;;;;16.50;13.25;;;;;;;;4610966;30;45877;-80
2021/07/20 21:58:36;;;;;;;;;17.50;16.25;;;;;;;;4633239;30;45714;-80
2021/07/20 22:01:01;;;;;;;;;21.00;16.75;;;;;;;;4626712;30;45693;-80
2021/07/20 22:03:27;;;;;;;;;17.75;15.50;;;;;;;;4632513;30;45864;-79
2021/07/20 22:05:55;;;;;;;;;20.50;13.50;;;;;;;;4623491;30;45651;-80
2021/07/20 22:11:42;;;;;;;;;18.50;14.75;;;;;;;;4576646;30;46127;-79
2021/07/20 22:14:16;;;;;;;;;18.00;16.75;;;;;;;;4579436;30;45689;-79
2021/07/20 22:16:45;;;;;;;;;11.50;11.50;;;;;;;;4588187;30;45525;-79
2021/07/20 22:19:11;;;;;;;;;23.25;17.25;;;;;;;;4613776;30;46341;-79
2021/07/20 22:21:37;;;;;;;;;17.25;13.75;;;;;;;;4630332;30;45683;-80
2021/07/20 22:24:25;;;;;;;;;24.25;18.00;;;;;;;;4618839;30;47459;-79
2021/07/20 22:26:50;;;;;;;;;16.50;16.25;;;;;;;;4615120;30;45483;-79
2021/07/20 22:29:19;;;;;;;;;15.00;14.00;;;;;;;;4622684;30;48524;-80
2021/07/20 22:32:03;;;;;;;;;;;;;;;;;;;;;
2021/07/20 22:34:29;;;;;;;;;20.00;18.00;;;;;;;;4624216;30;75728;-79
2021/07/20 22:36:54;;;;;;;;;15.75;13.00;;;;;;;;4620020;30;45589;-79
2021/07/20 22:39:19;;;;;;;;;23.75;17.50;;;;;;;;4623993;30;45817;-80
2021/07/20 22:45:35;;;;;;;;;20.75;14.00;;;;;;;;4569426;30;45603;-79
2021/07/20 22:48:00;;;;;;;;;18.00;15.25;;;;;;;;4572709;30;48428;-79
2021/07/20 22:50:27;;;;;;;;;15.00;15.00;;;;;;;;4646890;24;46003;-87
2021/07/20 22:52:53;;;;;;;;;15.50;13.75;;;;;;;;4701826;30;45654;-88
2021/07/20 22:55:19;;;;;;;;;12.75;11.00;;;;;;;;4697428;30;45735;-88
2021/07/20 22:57:44;;;;;;;;;16.25;14.00;;;;;;;;4684147;30;47638;-87